createdAt,value
2018-04-02T00:00:25.434Z,7.80
2018-04-02T00:02:53.722Z,7.70
2018-04-02T00:05:22.740Z,7.60
2018-04-02T00:07:50.981Z,7.60
2018-04-02T00:10:19.522Z,7.50
2018-04-02T00:12:47.757Z,7.50
2018-04-02T00:15:16.001Z,7.40
2018-04-02T00:17:45.284Z,7.30
2018-04-02T00:20:13.516Z,7.30
2018-04-02T00:22:41.810Z,7.30
2018-04-02T00:25:10.135Z,7.20
2018-04-02T00:27:38.425Z,7.20
2018-04-02T00:30:07.437Z,7.30
2018-04-02T00:32:35.713Z,7.20
2018-04-02T00:35:03.962Z,7.30
2018-04-02T00:37:33.157Z,7.40
2018-04-02T00:40:01.512Z,7.40
2018-04-02T00:42:29.817Z,7.50
2018-04-02T00:44:58.070Z,7.60
2018-04-02T00:47:26.330Z,7.60
2018-04-02T00:49:54.574Z,7.70
2018-04-02T00:52:23.111Z,7.90
2018-04-02T00:54:51.373Z,7.90
2018-04-02T00:57:19.621Z,8.00
2018-04-02T00:59:47.870Z,8.00
2018-04-02T01:02:16.315Z,8.10
2018-04-02T01:04:44.561Z,8.10
2018-04-02T01:07:12.801Z,8.10
2018-04-02T01:09:41.842Z,8.10
2018-04-02T01:12:10.080Z,8.10
2018-04-02T01:14:38.325Z,8.10
2018-04-02T01:17:06.605Z,8.20
2018-04-02T01:19:34.846Z,8.20
2018-04-02T01:22:03.184Z,8.20
2018-04-02T01:24:31.811Z,8.20
2018-04-02T01:27:00.114Z,8.30
2018-04-02T01:29:28.353Z,8.30
2018-04-02T01:31:56.617Z,8.20
2018-04-02T01:34:24.868Z,8.20
2018-04-02T01:36:53.103Z,8.10
2018-04-02T01:39:21.373Z,8.20
2018-04-02T01:41:49.612Z,8.10
2018-04-02T01:44:17.853Z,8.10
2018-04-02T01:46:46.609Z,8.00
2018-04-02T01:49:14.853Z,8.00
2018-04-02T01:51:43.170Z,7.90
2018-04-02T01:54:11.441Z,8.00
2018-04-02T01:56:39.683Z,8.00
2018-04-02T01:59:07.926Z,8.00
2018-04-02T02:01:37.146Z,7.90
2018-04-02T02:04:06.153Z,7.80
2018-04-02T02:06:35.161Z,7.70
2018-04-02T02:09:03.627Z,7.70
2018-04-02T02:11:31.870Z,7.60
2018-04-02T02:14:00.112Z,7.50
2018-04-02T02:16:28.385Z,7.40
2018-04-02T02:18:56.629Z,7.30
2018-04-02T02:21:24.877Z,7.20
2018-04-02T02:23:53.151Z,7.30
2018-04-02T02:26:21.410Z,7.20
2018-04-02T02:28:49.662Z,7.20
2018-04-02T02:31:18.090Z,7.00
2018-04-02T02:33:46.334Z,7.00
2018-04-02T02:36:14.586Z,7.00
2018-04-02T02:38:42.855Z,7.00
2018-04-02T02:41:11.862Z,6.80
2018-04-02T02:43:40.106Z,6.80
2018-04-02T02:46:08.941Z,6.80
2018-04-02T02:48:37.186Z,6.80
2018-04-02T02:51:05.425Z,6.70
2018-04-02T02:53:33.929Z,6.70
2018-04-02T02:56:02.174Z,6.70
2018-04-02T02:58:30.413Z,6.90
2018-04-02T03:00:58.689Z,7.10
2018-04-02T03:03:26.946Z,7.10
2018-04-02T03:05:56.356Z,7.00
2018-04-02T03:08:24.638Z,7.00
2018-04-02T03:10:52.897Z,7.00
2018-04-02T03:13:21.341Z,7.00
2018-04-02T03:15:49.793Z,7.00
2018-04-02T03:18:18.042Z,7.00
2018-04-02T03:20:46.285Z,7.00
2018-04-02T03:23:14.549Z,6.90
2018-04-02T03:25:42.792Z,6.90
2018-04-02T03:28:11.045Z,6.90
2018-04-02T03:30:40.075Z,6.90
2018-04-02T03:33:08.334Z,6.90
2018-04-02T03:35:36.609Z,6.90
2018-04-02T03:38:04.929Z,7.00
2018-04-02T03:40:33.173Z,7.00
2018-04-02T03:43:01.421Z,7.00
2018-04-02T03:45:30.449Z,6.90
2018-04-02T03:47:58.693Z,6.90
2018-04-02T03:50:27.710Z,6.70
2018-04-02T03:52:55.979Z,6.70
2018-04-02T03:55:24.749Z,6.60
2018-04-02T03:57:53.765Z,6.50
2018-04-02T04:00:22.286Z,6.50
2018-04-02T04:02:50.533Z,6.40
2018-04-02T04:05:18.779Z,6.40
2018-04-02T04:07:47.057Z,6.30
2018-04-02T04:10:15.303Z,6.30
2018-04-02T04:12:43.549Z,6.30
2018-04-02T04:15:11.814Z,6.20
2018-04-02T04:17:41.110Z,6.20
2018-04-02T04:20:09.742Z,6.30
2018-04-02T04:22:39.308Z,6.30
2018-04-02T04:25:09.609Z,6.30
2018-04-02T04:27:38.621Z,6.20
2018-04-02T04:30:07.941Z,6.10
2018-04-02T04:32:36.420Z,6.10
2018-04-02T04:35:04.658Z,6.00
2018-04-02T04:37:33.690Z,5.90
2018-04-02T04:40:01.988Z,5.90
2018-04-02T04:42:30.216Z,5.90
2018-04-02T04:45:00.177Z,5.90
2018-04-02T04:47:28.422Z,5.90
2018-04-02T04:49:56.661Z,5.80
2018-04-02T04:52:24.929Z,5.90
2018-04-02T04:54:53.180Z,5.80
2018-04-02T04:57:22.202Z,5.80
2018-04-02T04:59:50.469Z,5.80
2018-04-02T05:02:19.386Z,5.80
2018-04-02T05:04:47.626Z,5.80
2018-04-02T05:07:16.086Z,5.80
2018-04-02T05:09:44.329Z,5.80
2018-04-02T05:12:12.582Z,5.80
2018-04-02T05:14:41.613Z,5.70
2018-04-02T05:17:11.505Z,5.70
2018-04-02T05:19:39.744Z,5.70
2018-04-02T05:22:08.018Z,5.70
2018-04-02T05:24:36.274Z,5.80
2018-04-02T05:27:04.571Z,5.70
2018-04-02T05:29:33.035Z,5.80
2018-04-02T05:32:01.290Z,5.70
2018-04-02T05:34:29.537Z,5.80
2018-04-02T05:36:58.581Z,5.80
2018-04-02T05:39:27.305Z,5.80
2018-04-02T05:41:55.545Z,5.80
2018-04-02T05:44:23.820Z,5.80
2018-04-02T05:46:52.060Z,5.90
2018-04-02T05:49:20.302Z,5.90
2018-04-02T05:51:49.369Z,5.90
2018-04-02T05:54:17.621Z,5.90
2018-04-02T05:56:45.875Z,5.90
2018-04-02T05:59:15.447Z,5.90
2018-04-02T06:01:43.677Z,5.90
2018-04-02T06:04:11.930Z,5.90
2018-04-02T06:06:40.205Z,5.90
2018-04-02T06:09:09.221Z,6.00
2018-04-02T06:11:37.605Z,6.00
2018-04-02T06:14:06.946Z,6.00
2018-04-02T06:16:35.970Z,6.00
2018-04-02T06:19:04.705Z,6.10
2018-04-02T06:21:32.973Z,6.10
2018-04-02T06:24:01.221Z,6.10
2018-04-02T06:26:30.189Z,6.10
2018-04-02T06:28:58.465Z,6.10
2018-04-02T06:31:26.936Z,6.10
2018-04-02T06:33:55.181Z,6.20
2018-04-02T06:36:23.746Z,6.20
2018-04-02T06:38:51.990Z,6.20
2018-04-02T06:41:20.267Z,6.20
2018-04-02T06:43:48.529Z,6.20
2018-04-02T06:46:16.777Z,6.30
2018-04-02T06:48:45.018Z,6.30
2018-04-02T06:51:13.287Z,6.30
2018-04-02T06:53:41.541Z,6.40
2018-04-02T06:56:09.789Z,6.50
2018-04-02T06:58:38.377Z,6.50
2018-04-02T07:01:07.018Z,6.60
2018-04-02T07:03:36.033Z,6.60
2018-04-02T07:06:04.312Z,6.60
2018-04-02T07:08:33.508Z,6.70
2018-04-02T07:11:01.766Z,6.70
2018-04-02T07:13:30.161Z,6.80
2018-04-02T07:15:58.408Z,6.80
2018-04-02T07:18:26.646Z,6.90
2018-04-02T07:20:55.069Z,6.90
2018-04-02T07:23:23.385Z,7.00
2018-04-02T07:25:51.630Z,7.10
2018-04-02T07:28:19.901Z,7.10
2018-04-02T07:30:49.565Z,7.20
2018-04-02T07:33:17.809Z,7.20
2018-04-02T07:35:46.078Z,7.30
2018-04-02T07:38:14.324Z,7.30
2018-04-02T07:40:43.329Z,7.30
2018-04-02T07:43:11.973Z,7.30
2018-04-02T07:45:40.229Z,7.40
2018-04-02T07:48:08.470Z,7.50
2018-04-02T07:50:36.750Z,7.50
2018-04-02T07:53:05.136Z,7.60
2018-04-02T07:55:34.154Z,7.70
2018-04-02T07:58:02.426Z,7.80
2018-04-02T08:00:30.672Z,7.80
2018-04-02T08:02:58.991Z,7.90
2018-04-02T08:05:28.297Z,8.10
2018-04-02T08:07:56.545Z,8.10
2018-04-02T08:10:24.801Z,8.20
2018-04-02T08:12:53.089Z,8.30
2018-04-02T08:15:22.105Z,8.30
2018-04-02T08:17:50.469Z,8.30
2018-04-02T08:20:19.496Z,8.60
2018-04-02T08:22:47.734Z,8.50
2018-04-02T08:25:16.007Z,8.60
2018-04-02T08:27:44.308Z,8.70
2018-04-02T08:30:13.208Z,8.80
2018-04-02T08:32:41.551Z,9.00
2018-04-02T08:35:09.787Z,9.20
2018-04-02T08:37:38.025Z,9.30
2018-04-02T08:40:06.287Z,9.40
2018-04-02T08:42:36.092Z,9.60
2018-04-02T08:45:05.105Z,10.00
2018-04-02T08:47:33.353Z,10.00
2018-04-02T08:50:01.893Z,10.20
2018-04-02T08:52:30.702Z,10.30
2018-04-02T08:54:59.677Z,10.40
2018-04-02T08:57:27.966Z,10.50
2018-04-02T08:59:56.217Z,10.50
2018-04-02T09:02:24.466Z,10.70
2018-04-02T09:04:53.081Z,10.70
2018-04-02T09:07:21.325Z,10.80
2018-04-02T09:09:49.572Z,10.80
2018-04-02T09:12:18.230Z,10.90
2018-04-02T09:14:46.489Z,10.90
2018-04-02T09:17:14.741Z,10.90
2018-04-02T09:19:43.360Z,11.00
2018-04-02T09:22:11.665Z,11.10
2018-04-02T09:24:39.921Z,11.20
2018-04-02T09:27:08.201Z,11.30
2018-04-02T09:29:36.457Z,11.40
2018-04-02T09:32:04.794Z,11.50
2018-04-02T09:34:33.249Z,11.60
2018-04-02T09:37:01.509Z,11.50
2018-04-02T09:39:29.739Z,11.60
2018-04-02T09:41:58.775Z,11.50
2018-04-02T09:44:27.021Z,11.50
2018-04-02T09:46:55.257Z,11.60
2018-04-02T09:49:23.525Z,11.60
2018-04-02T09:51:51.776Z,11.60
2018-04-02T09:54:20.027Z,11.60
2018-04-02T09:56:49.977Z,12.00
2018-04-02T09:59:18.261Z,12.00
2018-04-02T10:01:46.997Z,12.10
2018-04-02T10:04:16.027Z,12.20
2018-04-02T10:06:44.387Z,12.20
2018-04-02T10:09:13.401Z,12.70
2018-04-02T10:11:41.669Z,12.60
2018-04-02T10:14:09.912Z,12.70
2018-04-02T10:16:38.157Z,12.80
2018-04-02T10:19:06.925Z,13.00
2018-04-02T10:21:35.170Z,13.20
2018-04-02T10:24:03.452Z,13.10
2018-04-02T10:26:32.457Z,12.90
2018-04-02T10:29:00.702Z,12.90
2018-04-02T10:31:29.712Z,13.20
2018-04-02T10:33:58.729Z,13.40
2018-04-02T10:36:27.593Z,13.40
2018-04-02T10:38:55.838Z,13.60
2018-04-02T10:41:24.485Z,14.30
2018-04-02T10:43:52.733Z,15.20
2018-04-02T10:46:20.969Z,15.80
2018-04-02T10:48:49.242Z,15.90
2018-04-02T10:51:17.477Z,16.00
2018-04-02T10:53:45.723Z,16.20
2018-04-02T10:56:13.981Z,16.60
2018-04-02T10:58:43.759Z,16.90
2018-04-02T11:01:11.997Z,17.50
2018-04-02T11:03:40.516Z,18.00
2018-04-02T11:06:08.808Z,17.80
2018-04-02T11:08:37.228Z,17.80
2018-04-02T11:11:06.257Z,16.90
2018-04-02T11:13:34.605Z,16.90
2018-04-02T11:16:03.610Z,16.80
2018-04-02T11:18:31.885Z,16.80
2018-04-02T11:21:00.145Z,17.40
2018-04-02T11:23:28.840Z,18.30
2018-04-02T11:25:57.461Z,18.40
2018-04-02T11:28:26.077Z,18.70
2018-04-02T11:30:54.325Z,18.90
2018-04-02T11:33:22.594Z,19.50
2018-04-02T11:35:50.869Z,20.00
2018-04-02T11:38:19.076Z,20.10
2018-04-02T11:40:47.472Z,20.40
2018-04-02T11:43:15.701Z,20.90
2018-04-02T11:45:43.949Z,21.50
2018-04-02T11:48:12.359Z,22.00
2018-04-02T11:50:40.612Z,22.30
2018-04-02T11:53:08.858Z,22.30
2018-04-02T11:55:37.882Z,22.70
2018-04-02T11:58:06.121Z,23.10
2018-04-02T12:00:34.364Z,22.90
2018-04-02T12:03:02.625Z,23.40
2018-04-02T12:05:30.869Z,23.60
2018-04-02T12:07:59.945Z,24.60
2018-04-02T12:10:28.764Z,24.60
2018-04-02T12:12:57.009Z,25.30
2018-04-02T12:15:25.245Z,25.50
2018-04-02T12:17:54.038Z,26.00
2018-04-02T12:20:24.488Z,26.40
2018-04-02T12:22:52.870Z,26.30
2018-04-02T12:25:21.449Z,25.20
2018-04-02T12:27:49.671Z,24.60
2018-04-02T12:30:18.684Z,25.40
2018-04-02T12:32:47.091Z,25.40
2018-04-02T12:35:15.894Z,26.20
2018-04-02T12:37:44.146Z,26.30
2018-04-02T12:40:12.505Z,26.20
2018-04-02T12:42:41.750Z,26.50
2018-04-02T12:45:10.005Z,26.80
2018-04-02T12:47:38.278Z,26.50
2018-04-02T12:50:07.288Z,24.90
2018-04-02T12:52:37.809Z,24.80
2018-04-02T12:55:06.206Z,24.20
2018-04-02T12:57:34.449Z,23.30
2018-04-02T13:00:02.695Z,22.90
2018-04-02T13:02:30.965Z,22.60
2018-04-02T13:04:59.970Z,23.00
2018-04-02T13:07:28.981Z,23.50
2018-04-02T13:09:57.253Z,23.40
2018-04-02T13:12:25.719Z,23.80
2018-04-02T13:14:54.960Z,25.50
2018-04-02T13:17:23.437Z,25.50
2018-04-02T13:19:51.769Z,25.80
2018-04-02T13:22:20.773Z,25.80
2018-04-02T13:24:49.819Z,26.70
2018-04-02T13:27:18.110Z,26.70
2018-04-02T13:29:46.361Z,27.70
2018-04-02T13:32:14.624Z,26.90
2018-04-02T13:34:42.870Z,26.90
2018-04-02T13:37:11.113Z,27.10
2018-04-02T13:39:39.785Z,27.10
2018-04-02T13:42:08.092Z,27.40
2018-04-02T13:44:36.326Z,27.20
2018-04-02T13:47:04.593Z,26.90
2018-04-02T13:49:32.831Z,26.40
2018-04-02T13:52:01.073Z,26.50
2018-04-02T13:54:29.333Z,26.90
2018-04-02T13:56:57.572Z,27.00
2018-04-02T13:59:25.822Z,27.40
2018-04-02T14:01:54.288Z,26.80
2018-04-02T14:04:22.526Z,26.30
2018-04-02T14:06:50.770Z,26.40
2018-04-02T14:09:19.037Z,26.40
2018-04-02T14:11:47.278Z,26.40
2018-04-02T14:14:16.397Z,26.30
2018-04-02T14:16:44.662Z,26.10
2018-04-02T14:19:12.909Z,25.90
2018-04-02T14:21:41.149Z,26.00
2018-04-02T14:24:09.677Z,26.10
2018-04-02T14:26:38.014Z,26.30
2018-04-02T14:29:07.032Z,26.50
2018-04-02T14:31:35.311Z,26.50
2018-04-02T14:34:03.553Z,27.20
2018-04-02T14:36:31.794Z,27.40
2018-04-02T14:39:00.078Z,28.10
2018-04-02T14:41:28.317Z,29.20
2018-04-02T14:43:56.641Z,30.10
2018-04-02T14:46:25.213Z,30.50
2018-04-02T14:48:53.441Z,30.40
2018-04-02T14:51:22.441Z,30.90
2018-04-02T14:53:50.703Z,30.80
2018-04-02T14:56:18.985Z,30.50
2018-04-02T14:58:47.230Z,29.80
2018-04-02T15:01:15.731Z,29.40
2018-04-02T15:03:44.002Z,29.10
2018-04-02T15:06:12.229Z,29.10
2018-04-02T15:08:40.812Z,28.80
2018-04-02T15:11:09.049Z,28.00
2018-04-02T15:13:37.319Z,27.20
2018-04-02T15:16:05.953Z,26.60
2018-04-02T15:18:34.200Z,26.30
2018-04-02T15:21:02.436Z,26.50
2018-04-02T15:23:31.478Z,26.30
2018-04-02T15:25:59.725Z,26.20
2018-04-02T15:28:28.735Z,25.10
2018-04-02T15:30:57.981Z,24.70
2018-04-02T15:33:26.217Z,24.60
2018-04-02T15:35:54.477Z,24.10
2018-04-02T15:38:23.505Z,23.60
2018-04-02T15:40:51.749Z,23.60
2018-04-02T15:43:19.985Z,23.50
2018-04-02T15:45:48.260Z,23.30
2018-04-02T15:48:16.540Z,23.10
2018-04-02T15:50:44.764Z,23.00
2018-04-02T15:53:13.889Z,22.60
2018-04-02T15:55:42.125Z,22.60
2018-04-02T15:58:11.130Z,22.40
2018-04-02T16:00:40.157Z,22.30
2018-04-02T16:03:08.417Z,22.30
2018-04-02T16:05:36.646Z,22.10
2018-04-02T16:08:04.906Z,21.80
2018-04-02T16:10:33.151Z,21.70
2018-04-02T16:13:01.391Z,21.50
2018-04-02T16:15:30.738Z,21.30
2018-04-02T16:17:59.377Z,21.30
2018-04-02T16:20:29.309Z,21.30
2018-04-02T16:22:58.341Z,21.30
2018-04-02T16:25:26.675Z,21.30
2018-04-02T16:27:55.682Z,21.70
2018-04-02T16:30:23.943Z,21.70
2018-04-02T16:32:52.179Z,21.70
2018-04-02T16:35:20.417Z,21.70
2018-04-02T16:37:49.226Z,21.60
2018-04-02T16:40:17.461Z,21.60
2018-04-02T16:42:45.705Z,21.40
2018-04-02T16:45:13.992Z,21.30
2018-04-02T16:47:42.238Z,21.30
2018-04-02T16:50:10.485Z,21.40
2018-04-02T16:52:38.742Z,21.40
2018-04-02T16:55:07.009Z,21.30
2018-04-02T16:57:35.251Z,21.20
2018-04-02T17:00:03.705Z,20.90
2018-04-02T17:02:31.946Z,20.50
2018-04-02T17:05:00.187Z,20.40
2018-04-02T17:07:28.564Z,20.30
2018-04-02T17:09:56.979Z,20.20
2018-04-02T17:12:25.209Z,20.00
2018-04-02T17:14:53.466Z,19.90
2018-04-02T17:17:21.705Z,19.70
2018-04-02T17:19:50.093Z,19.50
2018-04-02T17:22:19.464Z,19.10
2018-04-02T17:24:47.806Z,19.10
2018-04-02T17:27:16.438Z,19.00
2018-04-02T17:29:44.698Z,19.00
2018-04-02T17:32:13.117Z,18.90
2018-04-02T17:34:41.559Z,18.90
2018-04-02T17:37:09.822Z,18.80
2018-04-02T17:39:38.068Z,18.80
2018-04-02T17:42:06.310Z,18.80
2018-04-02T17:44:34.864Z,18.70
2018-04-02T17:47:03.146Z,18.70
2018-04-02T17:49:31.723Z,18.60
2018-04-02T17:52:01.152Z,18.60
2018-04-02T17:54:29.406Z,18.50
2018-04-02T17:56:57.651Z,18.50
2018-04-02T17:59:25.917Z,18.40
2018-04-02T18:01:54.161Z,18.40
2018-04-02T18:04:22.417Z,18.30
2018-04-02T18:06:50.890Z,18.30
2018-04-02T18:09:19.177Z,18.20
2018-04-02T18:11:47.429Z,18.10
2018-04-02T18:14:15.689Z,18.10
2018-04-02T18:16:43.932Z,18.10
2018-04-02T18:19:12.178Z,18.10
2018-04-02T18:21:41.417Z,18.00
2018-04-02T18:24:10.441Z,17.90
2018-04-02T18:26:39.682Z,17.90
2018-04-02T18:29:08.012Z,17.80
2018-04-02T18:31:36.279Z,17.80
2018-04-02T18:34:04.525Z,17.80
2018-04-02T18:36:32.786Z,17.70
2018-04-02T18:39:01.027Z,17.70
2018-04-02T18:41:29.560Z,17.60
2018-04-02T18:43:58.110Z,17.60
2018-04-02T18:46:26.399Z,17.50
2018-04-02T18:48:54.637Z,17.50
2018-04-02T18:51:24.483Z,17.40
2018-04-02T18:53:53.126Z,17.30
2018-04-02T18:56:21.489Z,17.30
2018-04-02T18:58:50.522Z,17.10
2018-04-02T19:01:18.826Z,17.10
2018-04-02T19:03:47.205Z,17.00
2018-04-02T19:06:15.787Z,16.90
2018-04-02T19:08:44.049Z,16.80
2018-04-02T19:11:13.042Z,16.70
2018-04-02T19:13:41.433Z,16.70
2018-04-02T19:16:09.733Z,16.70
2018-04-02T19:18:38.208Z,16.60
2018-04-02T19:21:07.429Z,16.60
2018-04-02T19:23:37.633Z,16.60
2018-04-02T19:26:06.026Z,16.50
2018-04-02T19:28:34.302Z,16.50
2018-04-02T19:31:02.977Z,16.50
2018-04-02T19:33:31.204Z,16.50
2018-04-02T19:36:00.211Z,16.50
2018-04-02T19:38:28.449Z,16.50
2018-04-02T19:40:56.891Z,16.50
2018-04-02T19:43:25.294Z,16.60
2018-04-02T19:45:53.645Z,16.60
2018-04-02T19:48:22.037Z,16.50
2018-04-02T19:50:50.785Z,16.50
2018-04-02T19:53:19.049Z,16.50
2018-04-02T19:55:47.286Z,16.50
2018-04-02T19:58:15.641Z,16.50
2018-04-02T20:00:43.856Z,16.50
2018-04-02T20:03:12.101Z,16.40
2018-04-02T20:05:40.371Z,16.40
2018-04-02T20:08:08.612Z,16.40
2018-04-02T20:10:36.853Z,16.40
2018-04-02T20:13:05.905Z,16.30
2018-04-02T20:15:34.201Z,16.30
2018-04-02T20:18:02.573Z,16.30
2018-04-02T20:20:33.113Z,16.30
2018-04-02T20:23:01.537Z,16.30
2018-04-02T20:25:29.757Z,16.30
2018-04-02T20:27:58.022Z,16.30
2018-04-02T20:30:26.321Z,16.20
2018-04-02T20:32:54.582Z,16.20
2018-04-02T20:35:22.846Z,16.10
2018-04-02T20:37:51.281Z,16.10
2018-04-02T20:40:19.522Z,16.00
2018-04-02T20:42:48.293Z,15.90
2018-04-02T20:45:16.545Z,15.90
2018-04-02T20:47:44.789Z,15.90
2018-04-02T20:50:13.089Z,15.80
2018-04-02T20:52:42.097Z,15.80
2018-04-02T20:55:10.338Z,15.80
2018-04-02T20:57:38.605Z,15.80
2018-04-02T21:00:06.841Z,15.90
2018-04-02T21:02:35.087Z,15.80
2018-04-02T21:05:03.701Z,15.80
2018-04-02T21:07:31.953Z,15.80
2018-04-02T21:10:01.367Z,15.80
2018-04-02T21:12:29.753Z,15.80
2018-04-02T21:14:58.030Z,15.80
2018-04-02T21:17:26.270Z,15.80
2018-04-02T21:19:54.549Z,15.70
2018-04-02T21:22:23.558Z,15.70
2018-04-02T21:24:51.951Z,15.70
2018-04-02T21:27:21.031Z,15.60
2018-04-02T21:29:49.294Z,15.60
2018-04-02T21:32:18.455Z,15.60
2018-04-02T21:34:46.713Z,15.60
2018-04-02T21:37:14.969Z,15.60
2018-04-02T21:39:43.220Z,15.60
2018-04-02T21:42:11.510Z,15.60
2018-04-02T21:44:40.534Z,15.50
2018-04-02T21:47:08.881Z,15.50
2018-04-02T21:49:38.534Z,15.50
2018-04-02T21:52:06.793Z,15.50
2018-04-02T21:54:35.249Z,15.40
2018-04-02T21:57:03.969Z,15.40
2018-04-02T21:59:32.231Z,15.40
2018-04-02T22:02:00.484Z,15.30
2018-04-02T22:04:28.765Z,15.30
2018-04-02T22:07:06.316Z,15.30
2018-04-02T22:09:38.607Z,15.30
2018-04-02T22:12:07.073Z,15.20
2018-04-02T22:14:35.465Z,15.20
2018-04-02T22:17:04.142Z,15.10
2018-04-02T22:19:32.886Z,15.10
2018-04-02T22:22:01.137Z,15.10
2018-04-02T22:24:29.926Z,15.10
2018-04-02T22:26:58.949Z,15.10
2018-04-02T22:29:27.262Z,15.10
2018-04-02T22:31:56.023Z,15.00
2018-04-02T22:34:24.278Z,15.00
2018-04-02T22:36:52.713Z,15.00
2018-04-02T22:39:20.987Z,15.00
2018-04-02T22:41:49.240Z,15.00
2018-04-02T22:44:17.849Z,15.00
2018-04-02T22:46:46.130Z,15.00
2018-04-02T22:49:14.379Z,15.00
2018-04-02T22:51:42.630Z,14.90
2018-04-02T22:54:10.961Z,14.90
2018-04-02T22:56:39.438Z,14.90
2018-04-02T22:59:07.681Z,14.90
2018-04-02T23:01:35.948Z,14.90
2018-04-02T23:04:05.193Z,14.90
2018-04-02T23:06:33.440Z,14.90
2018-04-02T23:09:01.717Z,14.90
2018-04-02T23:11:29.965Z,14.90
2018-04-02T23:13:58.218Z,14.90
2018-04-02T23:16:27.065Z,14.90
2018-04-02T23:18:55.313Z,14.90
2018-04-02T23:21:23.571Z,14.90
2018-04-02T23:23:52.606Z,14.80
2018-04-02T23:26:21.250Z,14.70
2018-04-02T23:28:50.262Z,14.70
2018-04-02T23:31:18.532Z,14.70
2018-04-02T23:33:46.782Z,14.70
2018-04-02T23:36:15.030Z,14.70
2018-04-02T23:38:43.498Z,14.70
2018-04-02T23:41:11.750Z,14.70
2018-04-02T23:43:40.006Z,14.70
2018-04-02T23:46:08.278Z,14.70
2018-04-02T23:48:37.302Z,14.60
2018-04-02T23:51:05.550Z,14.60
2018-04-02T23:53:33.827Z,14.60
2018-04-02T23:56:02.066Z,14.50
2018-04-02T23:58:30.317Z,14.50
